createdAt,value
2018-05-08T00:00:03.607Z,93.12
2018-05-08T00:01:12.251Z,93.41
2018-05-08T00:02:20.899Z,93.6
2018-05-08T00:03:29.539Z,93.41
2018-05-08T00:04:38.458Z,93.12
2018-05-08T00:05:47.368Z,93.98
2018-05-08T00:06:56.018Z,93.7
2018-05-08T00:08:04.660Z,93.41
2018-05-08T00:09:13.305Z,93.41
2018-05-08T00:10:21.952Z,93.6
2018-05-08T00:11:30.597Z,93.6
2018-05-08T00:12:39.246Z,93.31
2018-05-08T00:13:47.886Z,93.41
2018-05-08T00:14:56.530Z,94.07
2018-05-08T00:16:05.176Z,94.17
2018-05-08T00:17:14.096Z,93.79
2018-05-08T00:18:22.738Z,94.27
2018-05-08T00:19:31.641Z,94.31
2018-05-08T00:20:40.286Z,94.79
2018-05-08T00:21:48.940Z,94.6
2018-05-08T00:22:57.853Z,94.41
2018-05-08T00:24:06.496Z,94.6
2018-05-08T00:25:15.139Z,93.93
2018-05-08T00:26:23.781Z,94.7
2018-05-08T00:27:32.436Z,94.89
2018-05-08T00:28:41.077Z,94.31
2018-05-08T00:29:49.724Z,94.41
2018-05-08T00:30:58.364Z,94.6
2018-05-08T00:32:07.023Z,94.7
2018-05-08T00:33:16.187Z,94.22
2018-05-08T00:34:24.848Z,94.79
2018-05-08T00:35:33.476Z,95.08
2018-05-08T00:36:42.396Z,95.17
2018-05-08T00:37:51.038Z,95.65
2018-05-08T00:38:59.947Z,95.94
2018-05-08T00:40:08.581Z,95.75
2018-05-08T00:41:17.229Z,96.03
2018-05-08T00:42:25.877Z,96.32
2018-05-08T00:43:34.784Z,96.17
2018-05-08T00:44:43.431Z,95.89
2018-05-08T00:45:52.067Z,96.08
2018-05-08T00:47:00.716Z,96.94
2018-05-08T00:48:09.361Z,96.66
2018-05-08T00:49:18.022Z,96.94
2018-05-08T00:50:26.651Z,96.75
2018-05-08T00:51:35.303Z,96.46
2018-05-08T00:52:44.214Z,96.66
2018-05-08T00:53:52.858Z,96.46
2018-05-08T00:55:01.495Z,96.66
2018-05-08T00:56:10.399Z,97.22
2018-05-08T00:57:19.041Z,97.22
2018-05-08T00:58:27.690Z,96.75
2018-05-08T00:59:36.333Z,96.46
2018-05-08T01:00:44.971Z,96.46
2018-05-08T01:01:53.613Z,96.08
2018-05-08T01:03:02.255Z,96.56
2018-05-08T01:04:10.908Z,96.37
2018-05-08T01:05:19.548Z,96.46
2018-05-08T01:06:28.197Z,96.27
2018-05-08T01:07:36.833Z,97.32
2018-05-08T01:08:45.486Z,96.66
2018-05-08T01:09:54.125Z,96.56
2018-05-08T01:11:03.126Z,97.13
2018-05-08T01:12:11.686Z,97.22
2018-05-08T01:13:20.344Z,97.13
2018-05-08T01:14:28.986Z,97.03
2018-05-08T01:15:37.893Z,97.89
2018-05-08T01:16:46.532Z,97.99
2018-05-08T01:17:55.181Z,98.18
2018-05-08T01:19:03.822Z,98.18
2018-05-08T01:20:12.473Z,97.8
2018-05-08T01:21:21.118Z,97.61
2018-05-08T01:22:29.757Z,98.37
2018-05-08T01:23:38.405Z,97.71
2018-05-08T01:24:47.049Z,97.99
2018-05-08T01:25:55.697Z,97.32
2018-05-08T01:27:04.343Z,97.13
2018-05-08T01:28:12.986Z,97.8
2018-05-08T01:29:21.631Z,97.99
2018-05-08T01:30:30.281Z,97.99
2018-05-08T01:31:39.245Z,98.08
2018-05-08T01:32:48.436Z,98.66
2018-05-08T01:33:57.080Z,98.18
2018-05-08T01:35:05.729Z,98.66
2018-05-08T01:36:14.371Z,98.75
2018-05-08T01:37:23.018Z,98.08
2018-05-08T01:38:31.918Z,98.08
2018-05-08T01:39:40.560Z,97.51
2018-05-08T01:40:49.477Z,97.8
2018-05-08T01:41:58.119Z,98.27
2018-05-08T01:43:06.764Z,97.99
2018-05-08T01:44:15.400Z,97.8
2018-05-08T01:45:24.049Z,97.99
2018-05-08T01:46:32.693Z,97.32
2018-05-08T01:47:41.336Z,98.18
2018-05-08T01:48:49.977Z,98.08
2018-05-08T01:49:58.625Z,97.71
2018-05-08T01:51:07.267Z,97.61
2018-05-08T01:52:15.924Z,97.8
2018-05-08T01:53:24.562Z,97.8
2018-05-08T01:54:33.207Z,97.99
2018-05-08T01:55:41.852Z,97.89
2018-05-08T01:56:50.506Z,97.71
2018-05-08T01:57:59.142Z,97.94
2018-05-08T01:59:07.780Z,97.71
2018-05-08T02:00:16.426Z,97.61
2018-05-08T02:01:25.070Z,97.61
2018-05-08T02:02:33.720Z,97.89
2018-05-08T02:03:42.359Z,97.66
2018-05-08T02:04:51.004Z,97.94
2018-05-08T02:05:59.916Z,97.94
2018-05-08T02:07:08.565Z,97.56
2018-05-08T02:08:17.479Z,97.61
2018-05-08T02:09:26.126Z,97.42
2018-05-08T02:10:35.034Z,97.13
2018-05-08T02:11:43.683Z,97.08
2018-05-08T02:12:52.323Z,96.98
2018-05-08T02:14:01.235Z,97.13
2018-05-08T02:15:10.141Z,97.17
2018-05-08T02:16:18.789Z,96.66
2018-05-08T02:17:27.429Z,96.41
2018-05-08T02:18:36.076Z,96.13
2018-05-08T02:19:44.984Z,96.66
2018-05-08T02:20:53.636Z,97.32
2018-05-08T02:22:02.280Z,97.03
2018-05-08T02:23:10.918Z,96.61
2018-05-08T02:24:19.563Z,97.42
2018-05-08T02:25:28.480Z,96.94
2018-05-08T02:26:37.379Z,97.37
2018-05-08T02:27:46.026Z,97.8
2018-05-08T02:28:54.667Z,97.94
2018-05-08T02:30:03.582Z,97.37
2018-05-08T02:31:12.765Z,97.08
2018-05-08T02:32:21.410Z,97.13
2018-05-08T02:33:30.335Z,96.84
2018-05-08T02:34:38.976Z,96.98
2018-05-08T02:35:47.625Z,97.03
2018-05-08T02:36:56.531Z,97.32
2018-05-08T02:38:05.182Z,97.37
2018-05-08T02:39:13.818Z,97.89
2018-05-08T02:40:22.561Z,97.8
2018-05-08T02:41:31.115Z,98.03
2018-05-08T02:42:39.758Z,97.94
2018-05-08T02:43:48.397Z,97.27
2018-05-08T02:44:57.048Z,97.46
2018-05-08T02:46:05.693Z,97.75
2018-05-08T02:47:14.340Z,97.56
2018-05-08T02:48:22.989Z,97.66
2018-05-08T02:49:32.165Z,97.17
2018-05-08T02:50:40.807Z,97.94
2018-05-08T02:51:49.457Z,97.27
2018-05-08T02:52:58.109Z,97.08
2018-05-08T02:54:06.746Z,96.89
2018-05-08T02:55:15.397Z,97.46
2018-05-08T02:56:24.312Z,97.46
2018-05-08T02:57:33.226Z,97.85
2018-05-08T02:58:41.872Z,98.03
2018-05-08T02:59:50.789Z,97.37
2018-05-08T03:00:59.708Z,97.17
2018-05-08T03:02:08.359Z,97.37
2018-05-08T03:03:16.997Z,97.46
2018-05-08T03:04:25.655Z,97.46
2018-05-08T03:05:34.292Z,97.85
2018-05-08T03:06:43.216Z,98.03
2018-05-08T03:07:51.855Z,98.03
2018-05-08T03:09:00.773Z,98.03
2018-05-08T03:10:09.418Z,97.37
2018-05-08T03:11:18.321Z,96.8
2018-05-08T03:12:26.967Z,97.08
2018-05-08T03:13:35.612Z,97.17
2018-05-08T03:14:44.261Z,97.08
2018-05-08T03:15:52.898Z,97.08
2018-05-08T03:17:01.558Z,97.27
2018-05-08T03:18:10.461Z,96.89
2018-05-08T03:19:19.109Z,96.41
2018-05-08T03:20:27.746Z,96.22
2018-05-08T03:21:36.398Z,96.03
2018-05-08T03:22:45.045Z,95.65
2018-05-08T03:23:53.685Z,95.75
2018-05-08T03:25:02.320Z,95.27
2018-05-08T03:26:10.965Z,95.75
2018-05-08T03:27:19.613Z,95.27
2018-05-08T03:28:28.257Z,95.17
2018-05-08T03:29:36.903Z,95.56
2018-05-08T03:30:45.545Z,95.65
2018-05-08T03:31:54.459Z,95.27
2018-05-08T03:33:03.101Z,95.27
2018-05-08T03:34:11.754Z,95.56
2018-05-08T03:35:20.386Z,95.17
2018-05-08T03:36:29.036Z,95.94
2018-05-08T03:37:37.674Z,95.84
2018-05-08T03:38:46.603Z,95.84
2018-05-08T03:39:55.230Z,95.75
2018-05-08T03:41:03.876Z,96.03
2018-05-08T03:42:12.517Z,95.84
2018-05-08T03:43:21.440Z,95.84
2018-05-08T03:44:30.076Z,95.75
2018-05-08T03:45:38.716Z,95.37
2018-05-08T03:46:47.356Z,95.65
2018-05-08T03:47:55.998Z,95.84
2018-05-08T03:49:04.650Z,95.84
2018-05-08T03:50:13.291Z,96.41
2018-05-08T03:51:21.941Z,96.32
2018-05-08T03:52:30.575Z,96.41
2018-05-08T03:53:39.232Z,97.37
2018-05-08T03:54:47.877Z,97.85
2018-05-08T03:55:56.789Z,97.46
2018-05-08T03:57:05.425Z,97.17
2018-05-08T03:58:14.079Z,97.17
2018-05-08T03:59:22.719Z,96.7
2018-05-08T04:00:31.367Z,96.8
2018-05-08T04:01:40.002Z,97.17
2018-05-08T04:02:48.969Z,97.46
2018-05-08T04:03:57.620Z,97.46
2018-05-08T04:05:06.263Z,97.17
2018-05-08T04:06:14.908Z,97.37
2018-05-08T04:07:23.552Z,97.17
2018-05-08T04:08:32.202Z,97.08
2018-05-08T04:09:40.845Z,97.66
2018-05-08T04:10:49.493Z,97.46
2018-05-08T04:11:58.127Z,97.75
2018-05-08T04:13:06.776Z,97.46
2018-05-08T04:14:15.416Z,96.7
2018-05-08T04:15:24.372Z,97.08
2018-05-08T04:16:32.969Z,97.37
2018-05-08T04:17:41.612Z,97.08
2018-05-08T04:18:50.254Z,97.08
2018-05-08T04:19:58.908Z,96.61
2018-05-08T04:21:07.631Z,96.8
2018-05-08T04:22:16.196Z,96.22
2018-05-08T04:23:24.834Z,96.32
2018-05-08T04:24:33.738Z,95.94
2018-05-08T04:25:42.391Z,95.65
2018-05-08T04:26:51.031Z,95.65
2018-05-08T04:27:59.680Z,95.27
2018-05-08T04:29:08.579Z,94.89
2018-05-08T04:30:17.232Z,94.7
2018-05-08T04:31:25.872Z,94.6
2018-05-08T04:32:34.519Z,94.98
2018-05-08T04:33:43.454Z,95.46
2018-05-08T04:34:52.080Z,95.17
2018-05-08T04:36:00.727Z,95.22
2018-05-08T04:37:09.368Z,95.98
2018-05-08T04:38:18.003Z,95.51
2018-05-08T04:39:26.650Z,95.37
2018-05-08T04:40:35.295Z,95.32
2018-05-08T04:41:43.942Z,95.46
2018-05-08T04:42:52.587Z,95.65
2018-05-08T04:44:01.481Z,95.84
2018-05-08T04:45:10.129Z,95.61
2018-05-08T04:46:19.089Z,94.93
2018-05-08T04:47:28.078Z,94.65
2018-05-08T04:48:36.992Z,94.84
2018-05-08T04:49:45.636Z,95.12
2018-05-08T04:50:54.282Z,94.74
2018-05-08T04:52:02.935Z,94.36
2018-05-08T04:53:11.571Z,94.17
2018-05-08T04:54:20.221Z,94.65
2018-05-08T04:55:28.864Z,94.46
2018-05-08T04:56:37.781Z,94.56
2018-05-08T04:57:46.423Z,94.46
2018-05-08T04:58:55.063Z,94.17
2018-05-08T05:00:03.986Z,94.27
2018-05-08T05:01:12.892Z,94.46
2018-05-08T05:02:21.545Z,93.98
2018-05-08T05:03:30.185Z,94.07
2018-05-08T05:04:38.837Z,94.07
2018-05-08T05:05:47.471Z,94.07
2018-05-08T05:06:56.476Z,93.7
2018-05-08T05:08:05.446Z,93.41
2018-05-08T05:09:14.095Z,93.79
2018-05-08T05:10:22.730Z,94.36
2018-05-08T05:11:31.648Z,94.41
2018-05-08T05:12:40.291Z,94.6
2018-05-08T05:13:48.938Z,94.79
2018-05-08T05:14:57.580Z,94.51
2018-05-08T05:16:06.222Z,93.36
2018-05-08T05:17:15.129Z,93.74
2018-05-08T05:18:23.775Z,92.5
2018-05-08T05:19:32.427Z,92.21
2018-05-08T05:20:41.058Z,92.5
2018-05-08T05:21:49.703Z,91.26
2018-05-08T05:22:58.346Z,91.5
2018-05-08T05:24:07.258Z,92.55
2018-05-08T05:25:15.896Z,92.26
2018-05-08T05:26:24.543Z,92.64
2018-05-08T05:27:33.188Z,91.78
2018-05-08T05:28:41.837Z,92.83
2018-05-08T05:29:50.477Z,91.97
2018-05-08T05:30:59.125Z,92.55
2018-05-08T05:32:07.771Z,92.83
2018-05-08T05:33:16.684Z,92.45
2018-05-08T05:34:25.331Z,91.69
2018-05-08T05:35:34.247Z,91.78
2018-05-08T05:36:42.889Z,91.3
2018-05-08T05:37:51.793Z,91.4
2018-05-08T05:39:00.444Z,91.78
2018-05-08T05:40:09.392Z,90.39
2018-05-08T05:41:18.005Z,91.06
2018-05-08T05:42:26.641Z,90.49
2018-05-08T05:43:35.289Z,90.68
2018-05-08T05:44:43.935Z,90.11
2018-05-08T05:45:52.578Z,90.01
2018-05-08T05:47:01.221Z,89.44
2018-05-08T05:48:09.869Z,89.29
2018-05-08T05:49:18.513Z,88.24
2018-05-08T05:50:27.166Z,87.48
2018-05-08T05:51:35.809Z,87.38
2018-05-08T05:52:44.455Z,87.57
2018-05-08T05:53:53.120Z,87.86
2018-05-08T05:55:01.774Z,87.86
2018-05-08T05:56:10.415Z,87.19
2018-05-08T05:57:19.055Z,87.95
2018-05-08T05:58:27.702Z,87.81
2018-05-08T05:59:36.345Z,87.9
2018-05-08T06:00:44.996Z,87.57
2018-05-08T06:01:53.636Z,87.04
2018-05-08T06:03:02.281Z,86.85
2018-05-08T06:04:10.927Z,86.37
2018-05-08T06:05:19.581Z,85.32
2018-05-08T06:06:28.522Z,85.22
2018-05-08T06:07:37.709Z,84.94
2018-05-08T06:08:46.355Z,84.75
2018-05-08T06:09:54.995Z,84.41
2018-05-08T06:11:03.641Z,83.93
2018-05-08T06:12:12.287Z,84.12
2018-05-08T06:13:20.936Z,82.78
2018-05-08T06:14:29.585Z,81.54
2018-05-08T06:15:38.226Z,82.01
2018-05-08T06:16:47.409Z,81.96
2018-05-08T06:17:56.058Z,82.06
2018-05-08T06:19:04.710Z,82.15
2018-05-08T06:20:13.357Z,81.77
2018-05-08T06:21:22.004Z,81
2018-05-08T06:22:30.650Z,81
2018-05-08T06:23:39.305Z,80.43
2018-05-08T06:24:47.947Z,80.18
2018-05-08T06:25:56.601Z,80.66
2018-05-08T06:27:05.258Z,80.47
2018-05-08T06:28:13.906Z,80.47
2018-05-08T06:29:22.548Z,79.89
2018-05-08T06:30:31.201Z,80.37
2018-05-08T06:31:40.396Z,79.41
2018-05-08T06:32:49.038Z,79.22
2018-05-08T06:33:57.958Z,78.84
2018-05-08T06:35:06.877Z,79.51
2018-05-08T06:36:15.526Z,78.36
2018-05-08T06:37:24.168Z,78.55
2018-05-08T06:38:32.822Z,78.17
2018-05-08T06:39:41.467Z,77.44
2018-05-08T06:40:50.119Z,77.25
2018-05-08T06:41:58.766Z,77.44
2018-05-08T06:43:07.690Z,77.34
2018-05-08T06:44:16.618Z,76.77
2018-05-08T06:45:25.242Z,77.53
2018-05-08T06:46:33.923Z,78.2
2018-05-08T06:47:42.904Z,78.72
2018-05-08T06:48:51.546Z,77.67
2018-05-08T06:50:00.194Z,77.38
2018-05-08T06:51:08.843Z,77.58
2018-05-08T06:52:17.488Z,77.38
2018-05-08T06:53:26.135Z,77.19
2018-05-08T06:54:34.796Z,77.38
2018-05-08T06:55:43.456Z,76.9
2018-05-08T06:56:52.100Z,77.09
2018-05-08T06:58:00.743Z,76.71
2018-05-08T06:59:09.657Z,76.23
2018-05-08T07:00:18.308Z,76.42
2018-05-08T07:01:27.221Z,77
2018-05-08T07:02:35.870Z,76.62
2018-05-08T07:03:44.518Z,76.32
2018-05-08T07:04:53.169Z,74.93
2018-05-08T07:06:01.821Z,76.07
2018-05-08T07:07:10.738Z,76.07
2018-05-08T07:08:20.706Z,74.35
2018-05-08T07:09:29.351Z,74.16
2018-05-08T07:10:38.007Z,74.35
2018-05-08T07:11:46.651Z,73.49
2018-05-08T07:12:55.312Z,73.3
2018-05-08T07:14:04.218Z,72.85
2018-05-08T07:15:12.873Z,72.66
2018-05-08T07:16:21.516Z,72.37
2018-05-08T07:17:30.170Z,72.08
2018-05-08T07:18:38.809Z,72.08
2018-05-08T07:19:47.736Z,72.18
2018-05-08T07:20:56.383Z,72.95
2018-05-08T07:22:05.031Z,72.75
2018-05-08T07:23:13.676Z,72.31
2018-05-08T07:24:22.329Z,72.69
2018-05-08T07:25:30.978Z,72.12
2018-05-08T07:26:39.640Z,72.41
2018-05-08T07:27:48.282Z,71.35
2018-05-08T07:28:56.921Z,71.83
2018-05-08T07:30:05.991Z,70.87
2018-05-08T07:31:14.593Z,70.87
2018-05-08T07:32:23.250Z,71.25
2018-05-08T07:33:31.901Z,71.48
2018-05-08T07:34:40.823Z,70.81
2018-05-08T07:35:49.472Z,69.75
2018-05-08T07:36:58.129Z,69.27
2018-05-08T07:38:06.863Z,69.37
2018-05-08T07:39:15.432Z,69.18
2018-05-08T07:40:24.079Z,69.37
2018-05-08T07:41:32.736Z,69.37
2018-05-08T07:42:41.379Z,69.66
2018-05-08T07:43:50.023Z,69.95
2018-05-08T07:44:58.671Z,69.66
2018-05-08T07:46:07.600Z,69.85
2018-05-08T07:47:16.262Z,69.85
2018-05-08T07:48:24.903Z,69.79
2018-05-08T07:49:33.558Z,68.54
2018-05-08T07:50:42.557Z,68.54
2018-05-08T07:51:51.226Z,67.68
2018-05-08T07:52:59.782Z,67.77
2018-05-08T07:54:08.441Z,67.68
2018-05-08T07:55:17.079Z,67.96
2018-05-08T07:56:26.010Z,68.06
2018-05-08T07:57:34.665Z,67.38
2018-05-08T07:58:43.309Z,67.1
2018-05-08T07:59:51.946Z,66.65
2018-05-08T08:01:00.597Z,66.84
2018-05-08T08:02:09.249Z,66.17
2018-05-08T08:03:17.979Z,66.07
2018-05-08T08:04:26.551Z,65.59
2018-05-08T08:05:35.190Z,65.97
2018-05-08T08:06:43.841Z,65.97
2018-05-08T08:07:52.488Z,66.07
2018-05-08T08:09:01.147Z,66.55
2018-05-08T08:10:09.788Z,66.17
2018-05-08T08:11:18.437Z,66.1
2018-05-08T08:12:27.128Z,65.5
2018-05-08T08:13:35.741Z,66.07
2018-05-08T08:14:44.386Z,66.58
2018-05-08T08:15:53.040Z,65.91
2018-05-08T08:17:01.690Z,63.99
2018-05-08T08:18:10.346Z,64.47
2018-05-08T08:19:19.000Z,64.08
2018-05-08T08:20:27.913Z,63.31
2018-05-08T08:21:36.561Z,63.7
2018-05-08T08:22:45.209Z,64.18
2018-05-08T08:23:53.905Z,65.14
2018-05-08T08:25:02.512Z,64.66
2018-05-08T08:26:11.166Z,63.89
2018-05-08T08:27:19.815Z,64.31
2018-05-08T08:28:28.470Z,63.44
2018-05-08T08:29:37.537Z,64.31
2018-05-08T08:30:46.464Z,64.31
2018-05-08T08:31:55.101Z,63.47
2018-05-08T08:33:04.023Z,62.57
2018-05-08T08:34:12.671Z,63.38
2018-05-08T08:35:21.321Z,63.28
2018-05-08T08:36:29.966Z,62.12
2018-05-08T08:37:38.624Z,62.03
2018-05-08T08:38:47.277Z,61.07
2018-05-08T08:39:55.928Z,61.07
2018-05-08T08:41:04.845Z,61.55
2018-05-08T08:42:13.491Z,62.41
2018-05-08T08:43:22.139Z,61.65
2018-05-08T08:44:30.787Z,61.55
2018-05-08T08:45:39.452Z,61.93
2018-05-08T08:46:48.097Z,61.55
2018-05-08T08:47:56.808Z,61.74
2018-05-08T08:49:05.405Z,61.83
2018-05-08T08:50:14.098Z,62.12
2018-05-08T08:51:22.968Z,61.58
2018-05-08T08:52:31.620Z,61.1
2018-05-08T08:53:40.267Z,61.58
2018-05-08T08:54:48.925Z,60.52
2018-05-08T08:55:57.648Z,60.03
2018-05-08T08:57:06.227Z,59.94
2018-05-08T08:58:14.878Z,59.75
2018-05-08T08:59:23.527Z,60.03
2018-05-08T09:00:32.182Z,60.26
2018-05-08T09:01:40.834Z,60.52
2018-05-08T09:02:49.484Z,60.71
2018-05-08T09:03:58.177Z,59.65
2018-05-08T09:05:06.789Z,59.58
2018-05-08T09:06:15.432Z,59.1
2018-05-08T09:07:24.088Z,58.62
2018-05-08T09:08:32.729Z,57.65
2018-05-08T09:09:41.390Z,57.94
2018-05-08T09:10:50.041Z,58.52
2018-05-08T09:11:58.953Z,59.48
2018-05-08T09:13:07.595Z,57.56
2018-05-08T09:14:16.249Z,57.65
2018-05-08T09:15:24.906Z,58.04
2018-05-08T09:16:33.824Z,58.17
2018-05-08T09:17:42.483Z,56.98
2018-05-08T09:18:51.126Z,57.78
2018-05-08T09:19:59.781Z,56.72
2018-05-08T09:21:08.692Z,57.01
2018-05-08T09:22:17.356Z,57.49
2018-05-08T09:23:25.995Z,57.59
2018-05-08T09:24:34.663Z,57.49
2018-05-08T09:25:43.296Z,57.32
2018-05-08T09:26:51.956Z,56.16
2018-05-08T09:28:00.862Z,56.46
2018-05-08T09:29:09.515Z,56.36
2018-05-08T09:30:18.164Z,55.49
2018-05-08T09:31:26.820Z,55.59
2018-05-08T09:32:35.471Z,55.88
2018-05-08T09:33:44.120Z,54.05
2018-05-08T09:34:53.035Z,54.36
2018-05-08T09:36:01.686Z,55.33
2018-05-08T09:37:10.876Z,55.13
2018-05-08T09:38:19.520Z,52.72
2018-05-08T09:39:28.175Z,52.72
2018-05-08T09:40:36.820Z,51.95
2018-05-08T09:41:45.741Z,52.14
2018-05-08T09:42:54.390Z,51.95
2018-05-08T09:44:03.335Z,51.07
2018-05-08T09:45:11.978Z,51.75
2018-05-08T09:46:20.640Z,52.07
2018-05-08T09:47:29.289Z,52.26
2018-05-08T09:48:37.943Z,52.26
2018-05-08T09:49:46.873Z,52.84
2018-05-08T09:50:55.526Z,52.45
2018-05-08T09:52:04.464Z,49.55
2018-05-08T09:53:13.117Z,49.37
2018-05-08T09:54:22.037Z,49.85
2018-05-08T09:55:31.763Z,49.37
2018-05-08T09:56:44.072Z,50.52
2018-05-08T09:57:55.324Z,50.52
2018-05-08T09:59:04.252Z,48.81
2018-05-08T10:00:12.894Z,48.9
2018-05-08T10:01:21.577Z,48.81
2018-05-08T10:02:30.498Z,48.52
2018-05-08T10:03:39.150Z,49.29
2018-05-08T10:04:48.077Z,48.32
2018-05-08T10:05:56.734Z,48.32
2018-05-08T10:07:05.389Z,48.93
2018-05-08T10:08:14.297Z,48.83
2018-05-08T10:09:23.223Z,48.44
2018-05-08T10:10:31.877Z,47.19
2018-05-08T10:11:40.533Z,46.9
2018-05-08T10:12:49.450Z,47.19
2018-05-08T10:13:58.101Z,46.42
2018-05-08T10:15:06.757Z,46.51
2018-05-08T10:16:15.405Z,46.61
2018-05-08T10:17:24.065Z,46.7
2018-05-08T10:18:32.708Z,47.09
2018-05-08T10:19:41.432Z,47
2018-05-08T10:20:50.017Z,47.19
2018-05-08T10:21:58.676Z,46.22
2018-05-08T10:23:07.320Z,46.83
2018-05-08T10:24:15.974Z,46.44
2018-05-08T10:25:24.627Z,46.25
2018-05-08T10:26:33.818Z,45.86
2018-05-08T10:27:42.733Z,45.37
2018-05-08T10:28:51.385Z,46.25
2018-05-08T10:30:00.034Z,45.4
2018-05-08T10:31:08.960Z,45.57
2018-05-08T10:32:17.626Z,46.26
2018-05-08T10:33:26.542Z,45.88
2018-05-08T10:34:35.196Z,45.49
2018-05-08T10:35:43.844Z,45.59
2018-05-08T10:36:52.504Z,45.01
2018-05-08T10:38:01.152Z,44.72
2018-05-08T10:39:09.809Z,42.88
2018-05-08T10:40:18.454Z,43.27
2018-05-08T10:41:27.121Z,42.1
2018-05-08T10:42:36.076Z,41.62
2018-05-08T10:43:44.689Z,42
2018-05-08T10:44:53.334Z,43.29
2018-05-08T10:46:01.989Z,43.77
2018-05-08T10:47:10.648Z,43
2018-05-08T10:48:19.573Z,42.13
2018-05-08T10:49:28.228Z,42.13
2018-05-08T10:50:36.872Z,42.8
2018-05-08T10:51:45.805Z,42.32
2018-05-08T10:52:54.450Z,41.83
2018-05-08T10:54:03.387Z,42.22
2018-05-08T10:55:12.031Z,41.74
2018-05-08T10:56:20.690Z,40.77
2018-05-08T10:57:29.342Z,41.64
2018-05-08T10:58:38.265Z,41.93
2018-05-08T10:59:46.914Z,41.35
2018-05-08T11:00:55.566Z,41.55
2018-05-08T11:02:04.250Z,41.25
2018-05-08T11:03:12.909Z,42.22
2018-05-08T11:04:21.560Z,42.71
2018-05-08T11:05:30.219Z,42.61
2018-05-08T11:06:38.875Z,42.61
2018-05-08T11:07:47.790Z,41.47
2018-05-08T11:08:56.451Z,41.17
2018-05-08T11:10:05.102Z,41.27
2018-05-08T11:11:13.756Z,41.76
2018-05-08T11:12:22.411Z,41.56
2018-05-08T11:13:31.066Z,40.79
2018-05-08T11:14:39.722Z,40.4
2018-05-08T11:15:48.376Z,40.69
2018-05-08T11:16:57.026Z,40.81
2018-05-08T11:18:05.684Z,40.59
2018-05-08T11:19:14.336Z,39.53
2018-05-08T11:20:22.991Z,38.95
2018-05-08T11:21:31.643Z,38.85
2018-05-08T11:22:40.560Z,38.78
2018-05-08T11:23:49.217Z,38.46
2018-05-08T11:24:58.136Z,39.82
2018-05-08T11:26:06.793Z,40.71
2018-05-08T11:27:15.444Z,41
2018-05-08T11:28:24.099Z,41.58
2018-05-08T11:29:32.751Z,41.78
2018-05-08T11:30:41.679Z,40.81
2018-05-08T11:31:50.330Z,40.33
2018-05-08T11:32:58.983Z,38.87
2018-05-08T11:34:07.638Z,38.78
2018-05-08T11:35:16.567Z,39.16
2018-05-08T11:36:25.216Z,38.87
2018-05-08T11:37:33.875Z,39.65
2018-05-08T11:38:42.525Z,40.23
2018-05-08T11:39:51.185Z,39.55
2018-05-08T11:40:59.837Z,39.74
2018-05-08T11:42:08.492Z,40.42
2018-05-08T11:43:17.429Z,40.42
2018-05-08T11:44:26.082Z,39.06
2018-05-08T11:45:34.741Z,38.78
2018-05-08T11:46:43.395Z,39.65
2018-05-08T11:47:52.052Z,39.94
2018-05-08T11:49:00.699Z,41.02
2018-05-08T11:50:09.481Z,39.67
2018-05-08T11:51:18.013Z,40.44
2018-05-08T11:52:26.669Z,39.57
2018-05-08T11:53:35.322Z,38.31
2018-05-08T11:54:43.979Z,39.08
2018-05-08T11:55:52.634Z,38.4
2018-05-08T11:57:01.556Z,39.08
2018-05-08T11:58:10.204Z,39.67
2018-05-08T11:59:19.130Z,40.34
2018-05-08T12:00:27.788Z,40.44
2018-05-08T12:01:36.443Z,41.02
2018-05-08T12:02:45.249Z,41.31
2018-05-08T12:03:53.761Z,41.8
2018-05-08T12:05:02.408Z,41.89
2018-05-08T12:06:11.067Z,41.99
2018-05-08T12:07:19.973Z,42.09
2018-05-08T12:08:28.634Z,39.2
2018-05-08T12:09:37.287Z,38.21
2018-05-08T12:10:46.214Z,37.16
2018-05-08T12:11:54.859Z,36.58
2018-05-08T12:13:03.786Z,37.24
2018-05-08T12:14:12.441Z,37.15
2018-05-08T12:15:21.097Z,36.29
2018-05-08T12:16:29.743Z,35.59
2018-05-08T12:17:38.398Z,36.58
2018-05-08T12:18:47.055Z,37.43
2018-05-08T12:19:55.712Z,38.02
2018-05-08T12:21:04.636Z,38.02
2018-05-08T12:22:13.281Z,36.97
2018-05-08T12:23:21.937Z,36.87
2018-05-08T12:24:30.589Z,36.77
2018-05-08T12:25:39.339Z,36.58
2018-05-08T12:26:47.902Z,36.29
2018-05-08T12:27:56.561Z,36.68
2018-05-08T12:29:05.212Z,36.58
2018-05-08T12:30:13.878Z,36.48
2018-05-08T12:31:22.523Z,36.77
2018-05-08T12:32:31.204Z,36.87
2018-05-08T12:33:39.855Z,37.55
2018-05-08T12:34:48.519Z,37.55
2018-05-08T12:35:57.171Z,37.84
2018-05-08T12:37:06.090Z,37.16
2018-05-08T12:38:14.743Z,36.19
2018-05-08T12:39:23.658Z,36.58
2018-05-08T12:40:32.322Z,36.97
2018-05-08T12:41:40.970Z,37.26
2018-05-08T12:42:49.898Z,36.4
2018-05-08T12:43:58.543Z,35.13
2018-05-08T12:45:07.479Z,35.71
2018-05-08T12:46:16.128Z,35.13
2018-05-08T12:47:24.787Z,35.32
2018-05-08T12:48:33.444Z,36.11
2018-05-08T12:49:42.106Z,36
2018-05-08T12:50:50.758Z,36
2018-05-08T12:51:59.679Z,36.58
2018-05-08T12:53:08.329Z,37.94
2018-05-08T12:54:17.258Z,37.65
2018-05-08T12:55:26.184Z,36.77
2018-05-08T12:56:34.839Z,36.77
2018-05-08T12:57:43.761Z,36.68
2018-05-08T12:58:52.749Z,36.68
2018-05-08T13:00:01.328Z,37.16
2018-05-08T13:01:09.980Z,37.07
2018-05-08T13:02:18.915Z,37.35
2018-05-08T13:03:27.568Z,36.77
2018-05-08T13:04:36.223Z,36.97
2018-05-08T13:05:44.876Z,37.16
2018-05-08T13:06:53.530Z,37.16
2018-05-08T13:08:02.182Z,36.48
2018-05-08T13:09:10.845Z,36.48
2018-05-08T13:10:19.498Z,36.68
2018-05-08T13:11:28.159Z,36.77
2018-05-08T13:12:36.811Z,37.35
2018-05-08T13:13:45.465Z,36.58
2018-05-08T13:14:54.116Z,36.79
2018-05-08T13:16:02.767Z,35.92
2018-05-08T13:17:11.428Z,36.6
2018-05-08T13:18:20.181Z,35.51
2018-05-08T13:19:29.111Z,35.41
2018-05-08T13:20:37.762Z,35.61
2018-05-08T13:21:46.425Z,36.19
2018-05-08T13:22:55.080Z,36.58
2018-05-08T13:24:04.271Z,35.9
2018-05-08T13:25:12.925Z,36.29
2018-05-08T13:26:21.586Z,36.58
2018-05-08T13:27:30.242Z,37.35
2018-05-08T13:28:39.162Z,36.48
2018-05-08T13:29:48.079Z,36.58
2018-05-08T13:30:56.738Z,35.8
2018-05-08T13:32:05.394Z,36.58
2018-05-08T13:33:14.323Z,37.26
2018-05-08T13:34:22.979Z,37.94
2018-05-08T13:35:31.628Z,37.26
2018-05-08T13:36:40.350Z,38.13
2018-05-08T13:37:48.942Z,37.35
2018-05-08T13:38:57.602Z,37.16
2018-05-08T13:40:06.252Z,37.45
2018-05-08T13:41:14.910Z,38.91
2018-05-08T13:42:23.563Z,37.94
2018-05-08T13:43:32.491Z,37.65
2018-05-08T13:44:41.143Z,37.74
2018-05-08T13:45:49.798Z,37.94
2018-05-08T13:46:58.452Z,37.65
2018-05-08T13:48:07.200Z,37.84
2018-05-08T13:49:15.766Z,38.04
2018-05-08T13:50:24.422Z,39.01
2018-05-08T13:51:33.078Z,37.84
2018-05-08T13:52:42.007Z,38.04
2018-05-08T13:53:50.657Z,38.52
2018-05-08T13:54:59.332Z,39.2
2018-05-08T13:56:08.570Z,39.2
2018-05-08T13:57:17.488Z,38.81
2018-05-08T13:58:26.143Z,38.23
2018-05-08T13:59:34.799Z,38.13
2018-05-08T14:00:43.720Z,38.13
2018-05-08T14:01:52.381Z,38.52
2018-05-08T14:03:01.030Z,39.11
2018-05-08T14:04:09.687Z,39.29
2018-05-08T14:05:18.338Z,39.69
2018-05-08T14:06:27.010Z,39.39
2018-05-08T14:07:35.649Z,39.29
2018-05-08T14:08:44.305Z,39.69
2018-05-08T14:09:52.966Z,40.56
2018-05-08T14:11:01.620Z,40.95
2018-05-08T14:12:10.284Z,40.56
2018-05-08T14:13:18.942Z,39.78
2018-05-08T14:14:27.598Z,40.36
2018-05-08T14:15:36.248Z,40.56
2018-05-08T14:16:45.193Z,39.69
2018-05-08T14:17:53.845Z,39.2
2018-05-08T14:19:02.501Z,39.01
2018-05-08T14:20:11.155Z,39.39
2018-05-08T14:21:20.080Z,39.59
2018-05-08T14:22:28.733Z,39.78
2018-05-08T14:23:37.388Z,40.26
2018-05-08T14:24:46.110Z,40.46
2018-05-08T14:25:54.696Z,39.01
2018-05-08T14:27:03.351Z,38.71
2018-05-08T14:28:12.007Z,39.29
2018-05-08T14:29:20.663Z,39.2
2018-05-08T14:30:29.313Z,39.29
2018-05-08T14:31:38.055Z,39.47
2018-05-08T14:32:46.627Z,40.44
2018-05-08T14:33:55.287Z,40.83
2018-05-08T14:35:03.937Z,39.18
2018-05-08T14:36:12.597Z,38.99
2018-05-08T14:37:21.253Z,39.57
2018-05-08T14:38:30.030Z,39.37
2018-05-08T14:39:38.568Z,39.08
2018-05-08T14:40:47.225Z,39.18
2018-05-08T14:41:55.879Z,38.6
2018-05-08T14:43:04.816Z,37.73
2018-05-08T14:44:13.466Z,38.4
2018-05-08T14:45:22.123Z,37.63
2018-05-08T14:46:30.777Z,38.12
2018-05-08T14:47:39.427Z,39.28